sensor_id;sensor_type;location;lat;lon;timestamp;temperature;humidity
42617;DHT22;28250;52.320;0.360;2023-03-31T00:01:25;10.20;99.90
42617;DHT22;28250;52.320;0.360;2023-03-31T00:03:51;10.20;99.90
42617;DHT22;28250;52.320;0.360;2023-03-31T00:06:26;10.20;99.90
42617;DHT22;28250;52.320;0.360;2023-03-31T00:08:53;10.20;99.90
42617;DHT22;28250;52.320;0.360;2023-03-31T00:11:20;10.10;99.90
42617;DHT22;28250;52.320;0.360;2023-03-31T00:13:46;10.20;99.90
42617;DHT22;28250;52.320;0.360;2023-03-31T00:16:12;10.20;99.90
42617;DHT22;28250;52.320;0.360;2023-03-31T00:18:38;10.20;99.90
42617;DHT22;28250;52.320;0.360;2023-03-31T00:21:13;10.20;99.90
42617;DHT22;28250;52.320;0.360;2023-03-31T00:23:52;10.20;99.90
42617;DHT22;28250;52.320;0.360;2023-03-31T00:26:19;10.10;99.90
42617;DHT22;28250;52.320;0.360;2023-03-31T00:28:50;10.20;99.90
42617;DHT22;28250;52.320;0.360;2023-03-31T00:31:16;10.20;99.90
42617;DHT22;28250;52.320;0.360;2023-03-31T00:33:43;10.20;99.90
42617;DHT22;28250;52.320;0.360;2023-03-31T00:36:09;10.20;99.90
42617;DHT22;28250;52.320;0.360;2023-03-31T00:38:35;10.20;99.90
42617;DHT22;28250;52.320;0.360;2023-03-31T00:41:01;10.20;99.90
42617;DHT22;28250;52.320;0.360;2023-03-31T00:43:29;10.20;99.90
42617;DHT22;28250;52.320;0.360;2023-03-31T00:45:59;10.20;99.90
42617;DHT22;28250;52.320;0.360;2023-03-31T00:48:46;10.20;99.90
42617;DHT22;28250;52.320;0.360;2023-03-31T00:51:17;10.10;99.90
42617;DHT22;28250;52.320;0.360;2023-03-31T00:53:45;10.10;99.90
42617;DHT22;28250;52.320;0.360;2023-03-31T00:56:14;10.10;99.90
42617;DHT22;28250;52.320;0.360;2023-03-31T00:58:41;10.10;99.90
42617;DHT22;28250;52.320;0.360;2023-03-31T01:01:13;10.10;99.90
42617;DHT22;28250;52.320;0.360;2023-03-31T01:03:44;10.00;99.90
42617;DHT22;28250;52.320;0.360;2023-03-31T01:06:12;10.10;99.90
42617;DHT22;28250;52.320;0.360;2023-03-31T01:08:39;10.10;99.90
42617;DHT22;28250;52.320;0.360;2023-03-31T01:11:07;10.10;99.90
42617;DHT22;28250;52.320;0.360;2023-03-31T01:13:36;10.10;99.90
42617;DHT22;28250;52.320;0.360;2023-03-31T01:16:03;10.10;99.90
42617;DHT22;28250;52.320;0.360;2023-03-31T01:18:29;10.10;99.90
42617;DHT22;28250;52.320;0.360;2023-03-31T01:32:26;10.10;99.90
42617;DHT22;28250;52.320;0.360;2023-03-31T01:43:22;10.20;99.90
42617;DHT22;28250;52.320;0.360;2023-03-31T01:52:05;10.20;99.90
42617;DHT22;28250;52.320;0.360;2023-03-31T01:57:32;10.20;99.90
42617;DHT22;28250;52.320;0.360;2023-03-31T02:00:07;10.20;99.90
42617;DHT22;28250;52.320;0.360;2023-03-31T02:03:03;10.20;99.90
42617;DHT22;28250;52.320;0.360;2023-03-31T02:05:37;10.20;99.90
42617;DHT22;28250;52.320;0.360;2023-03-31T02:08:08;10.20;99.90
42617;DHT22;28250;52.320;0.360;2023-03-31T02:10:36;10.20;99.90
42617;DHT22;28250;52.320;0.360;2023-03-31T02:13:06;10.10;99.90
42617;DHT22;28250;52.320;0.360;2023-03-31T02:15:34;10.20;99.90
42617;DHT22;28250;52.320;0.360;2023-03-31T02:18:05;10.20;99.90
42617;DHT22;28250;52.320;0.360;2023-03-31T02:20:39;10.20;99.90
42617;DHT22;28250;52.320;0.360;2023-03-31T02:23:06;10.20;99.90
42617;DHT22;28250;52.320;0.360;2023-03-31T02:25:35;10.20;99.90
42617;DHT22;28250;52.320;0.360;2023-03-31T02:28:05;10.20;99.90
42617;DHT22;28250;52.320;0.360;2023-03-31T02:31:20;10.20;99.90
42617;DHT22;28250;52.320;0.360;2023-03-31T02:33:27;10.10;99.90
42617;DHT22;28250;52.320;0.360;2023-03-31T02:35:53;10.10;99.90
42617;DHT22;28250;52.320;0.360;2023-03-31T02:38:20;10.10;99.90
42617;DHT22;28250;52.320;0.360;2023-03-31T02:40:46;10.10;99.90
42617;DHT22;28250;52.320;0.360;2023-03-31T02:43:12;10.10;99.90
42617;DHT22;28250;52.320;0.360;2023-03-31T02:45:48;10.10;99.90
42617;DHT22;28250;52.320;0.360;2023-03-31T02:48:17;10.10;99.90
42617;DHT22;28250;52.320;0.360;2023-03-31T03:00:08;10.20;99.90
42617;DHT22;28250;52.320;0.360;2023-03-31T03:02:55;10.20;99.90
42617;DHT22;28250;52.320;0.360;2023-03-31T03:09:06;10.20;99.90
42617;DHT22;28250;52.320;0.360;2023-03-31T03:11:45;10.30;99.90
42617;DHT22;28250;52.320;0.360;2023-03-31T03:14:19;10.30;99.90
42617;DHT22;28250;52.320;0.360;2023-03-31T03:19:54;10.30;99.90
42617;DHT22;28250;52.320;0.360;2023-03-31T03:22:22;10.30;99.90
42617;DHT22;28250;52.320;0.360;2023-03-31T03:24:48;10.30;99.90
42617;DHT22;28250;52.320;0.360;2023-03-31T03:27:14;10.30;99.90
42617;DHT22;28250;52.320;0.360;2023-03-31T03:29:40;10.30;99.90
42617;DHT22;28250;52.320;0.360;2023-03-31T03:32:07;10.30;99.90
42617;DHT22;28250;52.320;0.360;2023-03-31T03:34:34;10.30;99.90
42617;DHT22;28250;52.320;0.360;2023-03-31T03:37:00;10.30;99.90
42617;DHT22;28250;52.320;0.360;2023-03-31T03:39:26;10.40;99.90
42617;DHT22;28250;52.320;0.360;2023-03-31T03:41:52;10.40;99.90
42617;DHT22;28250;52.320;0.360;2023-03-31T03:44:18;10.40;99.90
42617;DHT22;28250;52.320;0.360;2023-03-31T03:46:44;10.40;99.90
42617;DHT22;28250;52.320;0.360;2023-03-31T03:49:10;10.40;99.90
42617;DHT22;28250;52.320;0.360;2023-03-31T03:51:35;10.40;99.90
42617;DHT22;28250;52.320;0.360;2023-03-31T03:54:01;10.40;99.90
42617;DHT22;28250;52.320;0.360;2023-03-31T03:56:27;10.40;99.90
42617;DHT22;28250;52.320;0.360;2023-03-31T03:58:53;10.40;99.90
42617;DHT22;28250;52.320;0.360;2023-03-31T04:01:19;10.40;99.90
42617;DHT22;28250;52.320;0.360;2023-03-31T04:03:45;10.40;99.90
42617;DHT22;28250;52.320;0.360;2023-03-31T04:06:11;10.40;99.90
42617;DHT22;28250;52.320;0.360;2023-03-31T04:08:37;10.40;99.90
42617;DHT22;28250;52.320;0.360;2023-03-31T04:11:04;10.40;99.90
42617;DHT22;28250;52.320;0.360;2023-03-31T04:13:37;10.40;99.90
42617;DHT22;28250;52.320;0.360;2023-03-31T04:16:03;10.40;99.90
42617;DHT22;28250;52.320;0.360;2023-03-31T04:18:30;10.40;99.90
42617;DHT22;28250;52.320;0.360;2023-03-31T04:20:55;10.40;99.90
42617;DHT22;28250;52.320;0.360;2023-03-31T04:23:31;10.40;99.90
42617;DHT22;28250;52.320;0.360;2023-03-31T04:26:03;10.40;99.90
42617;DHT22;28250;52.320;0.360;2023-03-31T04:28:33;10.40;99.90
42617;DHT22;28250;52.320;0.360;2023-03-31T04:31:03;10.40;99.90
42617;DHT22;28250;52.320;0.360;2023-03-31T04:33:33;10.40;99.90
42617;DHT22;28250;52.320;0.360;2023-03-31T04:36:06;10.40;99.90
42617;DHT22;28250;52.320;0.360;2023-03-31T04:38:45;10.40;99.90
42617;DHT22;28250;52.320;0.360;2023-03-31T04:41:15;10.40;99.90
42617;DHT22;28250;52.320;0.360;2023-03-31T04:43:41;10.40;99.90
42617;DHT22;28250;52.320;0.360;2023-03-31T04:46:08;10.40;99.90
42617;DHT22;28250;52.320;0.360;2023-03-31T04:48:34;10.40;99.90
42617;DHT22;28250;52.320;0.360;2023-03-31T04:51:00;10.40;99.90
42617;DHT22;28250;52.320;0.360;2023-03-31T04:53:27;10.40;99.90
42617;DHT22;28250;52.320;0.360;2023-03-31T04:55:53;10.30;99.90
42617;DHT22;28250;52.320;0.360;2023-03-31T04:58:19;10.40;99.90
42617;DHT22;28250;52.320;0.360;2023-03-31T05:00:45;10.40;99.90
42617;DHT22;28250;52.320;0.360;2023-03-31T05:03:11;10.40;99.90
42617;DHT22;28250;52.320;0.360;2023-03-31T05:05:37;10.30;99.90
42617;DHT22;28250;52.320;0.360;2023-03-31T05:08:03;10.20;99.90
42617;DHT22;28250;52.320;0.360;2023-03-31T05:10:30;10.20;99.90
42617;DHT22;28250;52.320;0.360;2023-03-31T05:12:56;10.30;99.90
42617;DHT22;28250;52.320;0.360;2023-03-31T05:15:22;10.30;99.90
42617;DHT22;28250;52.320;0.360;2023-03-31T05:17:51;10.30;99.90
42617;DHT22;28250;52.320;0.360;2023-03-31T05:20:18;10.30;99.90
42617;DHT22;28250;52.320;0.360;2023-03-31T05:22:45;10.30;99.90
42617;DHT22;28250;52.320;0.360;2023-03-31T05:25:12;10.30;99.90
42617;DHT22;28250;52.320;0.360;2023-03-31T05:27:45;10.30;99.90
42617;DHT22;28250;52.320;0.360;2023-03-31T05:30:12;10.20;99.90
42617;DHT22;28250;52.320;0.360;2023-03-31T05:32:39;10.20;99.90
42617;DHT22;28250;52.320;0.360;2023-03-31T05:35:05;10.20;99.90
42617;DHT22;28250;52.320;0.360;2023-03-31T05:37:31;10.20;99.90
42617;DHT22;28250;52.320;0.360;2023-03-31T05:39:56;10.20;99.90
42617;DHT22;28250;52.320;0.360;2023-03-31T05:42:23;10.30;99.90
42617;DHT22;28250;52.320;0.360;2023-03-31T05:44:49;10.30;99.90
42617;DHT22;28250;52.320;0.360;2023-03-31T05:47:15;10.20;99.90
42617;DHT22;28250;52.320;0.360;2023-03-31T05:49:41;10.20;99.90
42617;DHT22;28250;52.320;0.360;2023-03-31T05:52:10;10.20;99.90
42617;DHT22;28250;52.320;0.360;2023-03-31T05:54:36;10.20;99.90
42617;DHT22;28250;52.320;0.360;2023-03-31T05:57:02;10.20;99.90
42617;DHT22;28250;52.320;0.360;2023-03-31T05:59:28;10.20;99.90
42617;DHT22;28250;52.320;0.360;2023-03-31T06:01:54;10.20;99.90
42617;DHT22;28250;52.320;0.360;2023-03-31T06:04:20;10.20;99.90
42617;DHT22;28250;52.320;0.360;2023-03-31T06:06:46;10.20;99.90
42617;DHT22;28250;52.320;0.360;2023-03-31T06:09:14;10.20;99.90
42617;DHT22;28250;52.320;0.360;2023-03-31T06:11:42;10.30;99.90
42617;DHT22;28250;52.320;0.360;2023-03-31T06:14:08;10.30;99.90
42617;DHT22;28250;52.320;0.360;2023-03-31T06:16:33;10.30;99.90
42617;DHT22;28250;52.320;0.360;2023-03-31T06:18:59;10.40;99.90
42617;DHT22;28250;52.320;0.360;2023-03-31T06:21:25;10.40;99.90
42617;DHT22;28250;52.320;0.360;2023-03-31T06:23:51;10.40;99.90
42617;DHT22;28250;52.320;0.360;2023-03-31T06:26:20;10.50;99.90
42617;DHT22;28250;52.320;0.360;2023-03-31T06:28:47;10.50;99.90
42617;DHT22;28250;52.320;0.360;2023-03-31T06:31:14;10.50;99.90
42617;DHT22;28250;52.320;0.360;2023-03-31T06:33:42;10.50;99.90
42617;DHT22;28250;52.320;0.360;2023-03-31T06:36:08;10.60;99.90
42617;DHT22;28250;52.320;0.360;2023-03-31T06:38:35;10.60;99.90
42617;DHT22;28250;52.320;0.360;2023-03-31T06:41:05;10.60;99.90
42617;DHT22;28250;52.320;0.360;2023-03-31T06:43:32;10.60;99.90
42617;DHT22;28250;52.320;0.360;2023-03-31T06:45:58;10.70;99.90
42617;DHT22;28250;52.320;0.360;2023-03-31T06:48:24;10.70;99.90
42617;DHT22;28250;52.320;0.360;2023-03-31T06:50:51;10.70;99.90
42617;DHT22;28250;52.320;0.360;2023-03-31T06:53:18;10.70;99.90
42617;DHT22;28250;52.320;0.360;2023-03-31T06:55:44;10.80;99.90
42617;DHT22;28250;52.320;0.360;2023-03-31T06:58:10;10.80;99.90
42617;DHT22;28250;52.320;0.360;2023-03-31T07:00:36;10.80;99.90
42617;DHT22;28250;52.320;0.360;2023-03-31T07:03:03;10.80;99.90
42617;DHT22;28250;52.320;0.360;2023-03-31T07:05:29;10.80;99.90
42617;DHT22;28250;52.320;0.360;2023-03-31T07:07:56;10.80;99.90
42617;DHT22;28250;52.320;0.360;2023-03-31T07:10:24;10.80;99.90
42617;DHT22;28250;52.320;0.360;2023-03-31T07:12:50;10.80;99.90
42617;DHT22;28250;52.320;0.360;2023-03-31T07:15:16;10.80;99.90
42617;DHT22;28250;52.320;0.360;2023-03-31T07:17:43;10.80;99.90
42617;DHT22;28250;52.320;0.360;2023-03-31T07:20:10;10.80;99.90
42617;DHT22;28250;52.320;0.360;2023-03-31T07:22:45;10.90;99.90
42617;DHT22;28250;52.320;0.360;2023-03-31T07:25:13;10.80;99.90
42617;DHT22;28250;52.320;0.360;2023-03-31T07:27:40;10.80;99.90
42617;DHT22;28250;52.320;0.360;2023-03-31T07:30:07;10.80;99.90
42617;DHT22;28250;52.320;0.360;2023-03-31T07:32:34;10.80;99.90
42617;DHT22;28250;52.320;0.360;2023-03-31T07:35:05;10.80;99.90
42617;DHT22;28250;52.320;0.360;2023-03-31T07:37:35;10.90;99.90
42617;DHT22;28250;52.320;0.360;2023-03-31T07:40:02;10.90;99.90
42617;DHT22;28250;52.320;0.360;2023-03-31T07:42:30;10.90;99.90
42617;DHT22;28250;52.320;0.360;2023-03-31T07:44:56;10.90;99.90
42617;DHT22;28250;52.320;0.360;2023-03-31T07:47:22;10.80;99.90
42617;DHT22;28250;52.320;0.360;2023-03-31T07:49:49;10.80;99.90
42617;DHT22;28250;52.320;0.360;2023-03-31T07:52:15;10.90;99.90
42617;DHT22;28250;52.320;0.360;2023-03-31T07:54:42;10.90;99.90
42617;DHT22;28250;52.320;0.360;2023-03-31T07:57:08;10.90;99.90
42617;DHT22;28250;52.320;0.360;2023-03-31T07:59:35;10.90;99.90
42617;DHT22;28250;52.320;0.360;2023-03-31T08:02:01;10.90;99.90
42617;DHT22;28250;52.320;0.360;2023-03-31T08:04:27;10.90;99.90
42617;DHT22;28250;52.320;0.360;2023-03-31T08:06:52;10.90;99.90
42617;DHT22;28250;52.320;0.360;2023-03-31T08:09:18;11.00;99.90
42617;DHT22;28250;52.320;0.360;2023-03-31T08:11:47;11.10;99.90
42617;DHT22;28250;52.320;0.360;2023-03-31T08:14:13;11.20;99.90
42617;DHT22;28250;52.320;0.360;2023-03-31T08:16:39;11.20;99.90
42617;DHT22;28250;52.320;0.360;2023-03-31T08:19:05;11.20;99.90
42617;DHT22;28250;52.320;0.360;2023-03-31T08:21:31;11.10;99.90
42617;DHT22;28250;52.320;0.360;2023-03-31T08:23:56;11.20;99.90
42617;DHT22;28250;52.320;0.360;2023-03-31T08:26:23;11.20;99.90
42617;DHT22;28250;52.320;0.360;2023-03-31T08:28:50;11.40;99.90
42617;DHT22;28250;52.320;0.360;2023-03-31T08:31:17;11.60;99.90
42617;DHT22;28250;52.320;0.360;2023-03-31T08:33:44;11.70;99.90
42617;DHT22;28250;52.320;0.360;2023-03-31T08:36:10;11.60;99.90
42617;DHT22;28250;52.320;0.360;2023-03-31T08:38:37;11.70;99.90
42617;DHT22;28250;52.320;0.360;2023-03-31T08:41:17;11.70;99.90
42617;DHT22;28250;52.320;0.360;2023-03-31T08:44:50;11.80;99.90
42617;DHT22;28250;52.320;0.360;2023-03-31T08:46:57;11.90;99.90
42617;DHT22;28250;52.320;0.360;2023-03-31T08:49:25;12.00;99.90
42617;DHT22;28250;52.320;0.360;2023-03-31T08:52:01;12.10;99.90
42617;DHT22;28250;52.320;0.360;2023-03-31T08:54:34;12.20;99.90
42617;DHT22;28250;52.320;0.360;2023-03-31T08:57:03;12.30;99.90
42617;DHT22;28250;52.320;0.360;2023-03-31T08:59:34;12.40;99.90
42617;DHT22;28250;52.320;0.360;2023-03-31T09:18:35;12.70;99.90
42617;DHT22;28250;52.320;0.360;2023-03-31T09:21:20;12.70;99.90
42617;DHT22;28250;52.320;0.360;2023-03-31T09:23:50;12.50;99.90
42617;DHT22;28250;52.320;0.360;2023-03-31T09:26:41;12.30;99.90
42617;DHT22;28250;52.320;0.360;2023-03-31T09:29:15;12.20;99.90
42617;DHT22;28250;52.320;0.360;2023-03-31T09:31:44;12.10;99.90
42617;DHT22;28250;52.320;0.360;2023-03-31T09:34:15;12.10;99.90
42617;DHT22;28250;52.320;0.360;2023-03-31T09:36:44;12.00;99.90
42617;DHT22;28250;52.320;0.360;2023-03-31T09:39:13;12.00;99.90
42617;DHT22;28250;52.320;0.360;2023-03-31T09:41:41;11.90;99.90
42617;DHT22;28250;52.320;0.360;2023-03-31T09:44:25;11.90;99.90
42617;DHT22;28250;52.320;0.360;2023-03-31T09:46:53;12.10;99.90
42617;DHT22;28250;52.320;0.360;2023-03-31T09:49:20;12.40;99.90
42617;DHT22;28250;52.320;0.360;2023-03-31T09:51:51;12.50;99.90
42617;DHT22;28250;52.320;0.360;2023-03-31T09:54:37;12.40;99.90
42617;DHT22;28250;52.320;0.360;2023-03-31T09:57:13;12.40;99.90
42617;DHT22;28250;52.320;0.360;2023-03-31T09:59:40;12.40;99.90
42617;DHT22;28250;52.320;0.360;2023-03-31T10:02:27;12.20;99.90
42617;DHT22;28250;52.320;0.360;2023-03-31T10:04:59;12.20;99.90
42617;DHT22;28250;52.320;0.360;2023-03-31T10:07:26;12.40;99.90
42617;DHT22;28250;52.320;0.360;2023-03-31T10:09:53;12.40;99.90
42617;DHT22;28250;52.320;0.360;2023-03-31T10:12:20;12.50;99.90
42617;DHT22;28250;52.320;0.360;2023-03-31T10:14:49;12.40;99.90
42617;DHT22;28250;52.320;0.360;2023-03-31T10:17:17;12.30;99.90
42617;DHT22;28250;52.320;0.360;2023-03-31T10:19:58;12.20;99.90
42617;DHT22;28250;52.320;0.360;2023-03-31T10:22:29;12.10;99.90
42617;DHT22;28250;52.320;0.360;2023-03-31T10:28:01;12.10;99.90
42617;DHT22;28250;52.320;0.360;2023-03-31T10:30:30;12.00;99.90
42617;DHT22;28250;52.320;0.360;2023-03-31T10:33:00;11.80;99.90
42617;DHT22;28250;52.320;0.360;2023-03-31T10:35:31;11.90;99.90
42617;DHT22;28250;52.320;0.360;2023-03-31T10:38:00;11.80;99.90
42617;DHT22;28250;52.320;0.360;2023-03-31T10:40:29;11.90;99.90
42617;DHT22;28250;52.320;0.360;2023-03-31T10:43:04;12.00;99.90
42617;DHT22;28250;52.320;0.360;2023-03-31T10:45:37;12.00;99.90
42617;DHT22;28250;52.320;0.360;2023-03-31T10:53:41;12.00;99.90
42617;DHT22;28250;52.320;0.360;2023-03-31T10:57:00;12.10;99.90
42617;DHT22;28250;52.320;0.360;2023-03-31T10:59:04;12.20;99.90
42617;DHT22;28250;52.320;0.360;2023-03-31T11:01:59;12.30;99.90
42617;DHT22;28250;52.320;0.360;2023-03-31T11:04:41;12.30;99.90
42617;DHT22;28250;52.320;0.360;2023-03-31T11:15:29;12.60;99.90
42617;DHT22;28250;52.320;0.360;2023-03-31T11:23:43;13.00;99.90
42617;DHT22;28250;52.320;0.360;2023-03-31T11:37:42;13.00;99.90
42617;DHT22;28250;52.320;0.360;2023-03-31T11:42:53;13.00;99.90
42617;DHT22;28250;52.320;0.360;2023-03-31T11:45:30;13.10;99.90
42617;DHT22;28250;52.320;0.360;2023-03-31T11:48:00;13.40;99.90
42617;DHT22;28250;52.320;0.360;2023-03-31T11:50:31;13.70;99.90
42617;DHT22;28250;52.320;0.360;2023-03-31T11:53:16;14.00;99.90
42617;DHT22;28250;52.320;0.360;2023-03-31T11:55:43;13.60;99.90
42617;DHT22;28250;52.320;0.360;2023-03-31T11:58:13;13.70;99.90
42617;DHT22;28250;52.320;0.360;2023-03-31T12:06:33;13.70;99.90
42617;DHT22;28250;52.320;0.360;2023-03-31T12:09:06;13.80;99.90
42617;DHT22;28250;52.320;0.360;2023-03-31T12:12:26;13.70;99.90
42617;DHT22;28250;52.320;0.360;2023-03-31T12:14:29;13.70;99.90
42617;DHT22;28250;52.320;0.360;2023-03-31T12:19:38;13.80;99.90
42617;DHT22;28250;52.320;0.360;2023-03-31T12:22:23;13.80;99.90
42617;DHT22;28250;52.320;0.360;2023-03-31T12:24:51;13.60;99.90
42617;DHT22;28250;52.320;0.360;2023-03-31T12:30:00;14.00;99.90
42617;DHT22;28250;52.320;0.360;2023-03-31T12:32:32;13.90;99.90
42617;DHT22;28250;52.320;0.360;2023-03-31T12:46:31;13.60;99.90
42617;DHT22;28250;52.320;0.360;2023-03-31T12:59:38;14.30;99.90
42617;DHT22;28250;52.320;0.360;2023-03-31T13:04:35;15.20;99.90
42617;DHT22;28250;52.320;0.360;2023-03-31T13:07:02;15.90;99.90
42617;DHT22;28250;52.320;0.360;2023-03-31T13:11:58;15.90;99.90
42617;DHT22;28250;52.320;0.360;2023-03-31T13:14:37;15.40;99.90
42617;DHT22;28250;52.320;0.360;2023-03-31T13:19:50;15.00;99.90
42617;DHT22;28250;52.320;0.360;2023-03-31T13:22:30;14.60;99.90
42617;DHT22;28250;52.320;0.360;2023-03-31T13:28:09;14.40;99.90
42617;DHT22;28250;52.320;0.360;2023-03-31T13:33:13;15.40;99.90
42617;DHT22;28250;52.320;0.360;2023-03-31T13:35:40;15.20;99.90
42617;DHT22;28250;52.320;0.360;2023-03-31T13:40:57;15.30;99.90
42617;DHT22;28250;52.320;0.360;2023-03-31T13:51:57;14.50;99.90
42617;DHT22;28250;52.320;0.360;2023-03-31T14:02:44;13.10;99.90
42617;DHT22;28250;52.320;0.360;2023-03-31T14:10:55;12.80;99.90
42617;DHT22;28250;52.320;0.360;2023-03-31T14:13:40;12.80;99.90
42617;DHT22;28250;52.320;0.360;2023-03-31T14:16:06;12.80;99.90
42617;DHT22;28250;52.320;0.360;2023-03-31T14:18:33;12.80;99.90
42617;DHT22;28250;52.320;0.360;2023-03-31T14:31:30;13.70;99.90
42617;DHT22;28250;52.320;0.360;2023-03-31T14:36:41;14.20;99.90
42617;DHT22;28250;52.320;0.360;2023-03-31T14:39:11;14.60;99.90
42617;DHT22;28250;52.320;0.360;2023-03-31T14:41:37;14.80;99.90
42617;DHT22;28250;52.320;0.360;2023-03-31T14:44:10;15.20;99.90
42617;DHT22;28250;52.320;0.360;2023-03-31T14:46:39;15.10;99.90
42617;DHT22;28250;52.320;0.360;2023-03-31T14:49:11;15.20;99.90
42617;DHT22;28250;52.320;0.360;2023-03-31T14:51:43;15.10;99.90
42617;DHT22;28250;52.320;0.360;2023-03-31T14:54:17;14.90;99.90
42617;DHT22;28250;52.320;0.360;2023-03-31T14:56:47;14.60;99.90
42617;DHT22;28250;52.320;0.360;2023-03-31T14:59:49;14.60;99.90
42617;DHT22;28250;52.320;0.360;2023-03-31T15:02:08;14.70;99.90
42617;DHT22;28250;52.320;0.360;2023-03-31T15:04:39;15.40;99.90
42617;DHT22;28250;52.320;0.360;2023-03-31T15:07:09;15.60;99.90
42617;DHT22;28250;52.320;0.360;2023-03-31T15:09:36;15.00;99.90
42617;DHT22;28250;52.320;0.360;2023-03-31T15:12:03;14.80;99.90
42617;DHT22;28250;52.320;0.360;2023-03-31T15:14:32;14.80;99.90
42617;DHT22;28250;52.320;0.360;2023-03-31T15:17:01;14.50;99.90
42617;DHT22;28250;52.320;0.360;2023-03-31T15:19:28;14.60;99.90
42617;DHT22;28250;52.320;0.360;2023-03-31T15:22:14;14.50;99.90
42617;DHT22;28250;52.320;0.360;2023-03-31T15:24:43;14.70;99.90
42617;DHT22;28250;52.320;0.360;2023-03-31T15:27:12;14.80;99.90
42617;DHT22;28250;52.320;0.360;2023-03-31T15:32:11;14.20;99.90
42617;DHT22;28250;52.320;0.360;2023-03-31T15:34:40;14.10;99.90
42617;DHT22;28250;52.320;0.360;2023-03-31T15:37:07;14.20;99.90
42617;DHT22;28250;52.320;0.360;2023-03-31T15:39:35;14.30;99.90
42617;DHT22;28250;52.320;0.360;2023-03-31T15:42:02;14.30;99.90
42617;DHT22;28250;52.320;0.360;2023-03-31T15:47:27;14.10;99.90
42617;DHT22;28250;52.320;0.360;2023-03-31T15:49:56;14.20;99.90
42617;DHT22;28250;52.320;0.360;2023-03-31T15:52:27;14.00;99.90
42617;DHT22;28250;52.320;0.360;2023-03-31T15:55:00;14.00;99.90
42617;DHT22;28250;52.320;0.360;2023-03-31T15:57:31;14.10;99.90
42617;DHT22;28250;52.320;0.360;2023-03-31T15:59:59;14.10;99.90
42617;DHT22;28250;52.320;0.360;2023-03-31T16:02:41;14.10;99.90
42617;DHT22;28250;52.320;0.360;2023-03-31T16:05:18;13.80;99.90
42617;DHT22;28250;52.320;0.360;2023-03-31T16:07:48;13.60;99.90
42617;DHT22;28250;52.320;0.360;2023-03-31T16:10:15;13.60;99.90
42617;DHT22;28250;52.320;0.360;2023-03-31T16:15:29;13.70;99.90
42617;DHT22;28250;52.320;0.360;2023-03-31T16:18:00;13.30;99.90
42617;DHT22;28250;52.320;0.360;2023-03-31T16:20:30;13.30;99.90
42617;DHT22;28250;52.320;0.360;2023-03-31T16:23:02;13.20;99.90
42617;DHT22;28250;52.320;0.360;2023-03-31T16:25:38;13.10;99.90
42617;DHT22;28250;52.320;0.360;2023-03-31T16:28:05;13.20;99.90
42617;DHT22;28250;52.320;0.360;2023-03-31T16:30:35;13.20;99.90
42617;DHT22;28250;52.320;0.360;2023-03-31T16:33:04;13.40;99.90
42617;DHT22;28250;52.320;0.360;2023-03-31T16:35:34;13.40;99.90
42617;DHT22;28250;52.320;0.360;2023-03-31T16:38:02;13.20;99.90
42617;DHT22;28250;52.320;0.360;2023-03-31T16:40:29;13.20;99.90
42617;DHT22;28250;52.320;0.360;2023-03-31T16:43:10;13.00;99.90
42617;DHT22;28250;52.320;0.360;2023-03-31T16:45:36;13.10;99.90
42617;DHT22;28250;52.320;0.360;2023-03-31T16:48:02;12.60;99.90
42617;DHT22;28250;52.320;0.360;2023-03-31T16:50:29;12.70;99.90
42617;DHT22;28250;52.320;0.360;2023-03-31T16:52:55;12.60;99.90
42617;DHT22;28250;52.320;0.360;2023-03-31T16:55:21;12.70;99.90
42617;DHT22;28250;52.320;0.360;2023-03-31T16:57:47;12.70;99.90
42617;DHT22;28250;52.320;0.360;2023-03-31T17:00:13;12.50;99.90
42617;DHT22;28250;52.320;0.360;2023-03-31T17:02:39;12.60;99.90
42617;DHT22;28250;52.320;0.360;2023-03-31T17:05:06;12.40;99.90
42617;DHT22;28250;52.320;0.360;2023-03-31T17:07:32;12.40;99.90
42617;DHT22;28250;52.320;0.360;2023-03-31T17:09:59;12.40;99.90
42617;DHT22;28250;52.320;0.360;2023-03-31T17:12:25;12.30;99.90
42617;DHT22;28250;52.320;0.360;2023-03-31T17:14:51;12.30;99.90
42617;DHT22;28250;52.320;0.360;2023-03-31T17:17:16;12.20;99.90
42617;DHT22;28250;52.320;0.360;2023-03-31T17:19:42;12.10;99.90
42617;DHT22;28250;52.320;0.360;2023-03-31T17:22:08;11.90;99.90
42617;DHT22;28250;52.320;0.360;2023-03-31T17:24:34;11.90;99.90
42617;DHT22;28250;52.320;0.360;2023-03-31T17:27:00;12.00;99.90
42617;DHT22;28250;52.320;0.360;2023-03-31T17:29:26;11.80;99.90
42617;DHT22;28250;52.320;0.360;2023-03-31T17:31:53;11.90;99.90
42617;DHT22;28250;52.320;0.360;2023-03-31T17:34:18;11.80;99.90
42617;DHT22;28250;52.320;0.360;2023-03-31T17:36:45;11.80;99.90
42617;DHT22;28250;52.320;0.360;2023-03-31T17:39:15;11.80;99.90
42617;DHT22;28250;52.320;0.360;2023-03-31T17:41:40;11.70;99.90
42617;DHT22;28250;52.320;0.360;2023-03-31T17:44:06;11.50;99.90
42617;DHT22;28250;52.320;0.360;2023-03-31T17:46:33;11.50;99.90
42617;DHT22;28250;52.320;0.360;2023-03-31T17:48:59;11.30;99.90
42617;DHT22;28250;52.320;0.360;2023-03-31T17:51:25;11.20;99.90
42617;DHT22;28250;52.320;0.360;2023-03-31T17:53:52;11.20;99.90
42617;DHT22;28250;52.320;0.360;2023-03-31T17:56:18;11.20;99.90
42617;DHT22;28250;52.320;0.360;2023-03-31T17:58:44;11.10;99.90
42617;DHT22;28250;52.320;0.360;2023-03-31T18:01:10;11.10;99.90
42617;DHT22;28250;52.320;0.360;2023-03-31T18:03:37;10.90;99.90
42617;DHT22;28250;52.320;0.360;2023-03-31T18:06:03;10.90;99.90
42617;DHT22;28250;52.320;0.360;2023-03-31T18:08:31;10.90;99.90
42617;DHT22;28250;52.320;0.360;2023-03-31T18:10:57;10.90;99.90
42617;DHT22;28250;52.320;0.360;2023-03-31T18:13:23;10.90;99.90
42617;DHT22;28250;52.320;0.360;2023-03-31T18:15:49;10.80;99.90
42617;DHT22;28250;52.320;0.360;2023-03-31T18:18:17;10.70;99.90
42617;DHT22;28250;52.320;0.360;2023-03-31T18:20:45;10.60;99.90
42617;DHT22;28250;52.320;0.360;2023-03-31T18:23:11;10.60;99.90
42617;DHT22;28250;52.320;0.360;2023-03-31T18:25:36;10.60;99.90
42617;DHT22;28250;52.320;0.360;2023-03-31T18:28:03;10.60;99.90
42617;DHT22;28250;52.320;0.360;2023-03-31T18:30:29;10.50;99.90
42617;DHT22;28250;52.320;0.360;2023-03-31T18:32:55;10.40;99.90
42617;DHT22;28250;52.320;0.360;2023-03-31T18:35:21;10.30;99.90
42617;DHT22;28250;52.320;0.360;2023-03-31T18:37:47;10.20;99.90
42617;DHT22;28250;52.320;0.360;2023-03-31T18:40:13;10.20;99.90
42617;DHT22;28250;52.320;0.360;2023-03-31T18:42:40;10.20;99.90
42617;DHT22;28250;52.320;0.360;2023-03-31T18:45:06;10.20;99.90
42617;DHT22;28250;52.320;0.360;2023-03-31T18:47:33;10.20;99.90
42617;DHT22;28250;52.320;0.360;2023-03-31T18:50:03;10.20;99.90
42617;DHT22;28250;52.320;0.360;2023-03-31T18:52:29;10.20;99.90
42617;DHT22;28250;52.320;0.360;2023-03-31T18:54:56;10.20;99.90